Time;durP1;ratioP1;P1;durP2;ratioP2;P2;SDS_P1;SDS_P2;PMS_P1;PMS_P2;Temp;Humidity;BMP_temperature;BMP_pressure;BME280_temperature;BME280_humidity;BME280_pressure;Samples;Min_cycle;Max_cycle;Signal;HPM_P1;HPM_P2
2023/05/28 00:02:16;;;;;;;3.35;2.67;;;23.10;83.70;;;;;;6013560;29;94252;-67
2023/05/28 00:05:18;;;;;;;3.05;2.75;;;23.00;83.60;;;;;;5992407;29;94144;-67
2023/05/28 00:08:20;;;;;;;3.97;3.20;;;23.10;83.60;;;;;;6004091;29;95073;-67
2023/05/28 00:11:23;;;;;;;3.92;3.10;;;23.00;83.60;;;;;;6011485;29;93978;-67
2023/05/28 00:14:26;;;;;;;3.40;3.05;;;23.00;83.60;;;;;;6011704;29;94308;-67
2023/05/28 00:17:28;;;;;;;3.30;2.75;;;23.10;83.70;;;;;;6011945;29;93010;-67
2023/05/28 00:20:30;;;;;;;4.03;2.95;;;23.10;83.70;;;;;;6012287;29;94095;-67
2023/05/28 00:23:32;;;;;;;3.42;2.80;;;23.10;83.70;;;;;;6022300;29;94116;-67
2023/05/28 00:26:36;;;;;;;3.20;2.80;;;23.00;83.60;;;;;;6005249;29;94148;-67
2023/05/28 00:29:40;;;;;;;3.42;3.00;;;23.00;83.70;;;;;;6012332;29;92497;-66
2023/05/28 00:32:42;;;;;;;2.90;2.53;;;23.10;83.70;;;;;;5994555;29;94160;-67
2023/05/28 00:35:44;;;;;;;3.30;2.70;;;23.00;83.70;;;;;;6015401;29;93006;-67
2023/05/28 00:38:46;;;;;;;2.80;2.60;;;23.10;83.70;;;;;;6021021;29;95026;-67
2023/05/28 00:41:48;;;;;;;3.42;3.00;;;23.00;83.60;;;;;;6011855;29;94093;-67
2023/05/28 00:44:52;;;;;;;3.20;2.90;;;23.10;83.70;;;;;;6010095;29;94344;-67
2023/05/28 00:47:54;;;;;;;3.50;2.70;;;23.00;83.60;;;;;;6004563;29;94251;-67
2023/05/28 00:50:56;;;;;;;3.25;2.70;;;23.10;83.70;;;;;;6017095;29;94262;-67
2023/05/28 00:53:58;;;;;;;3.15;2.83;;;23.00;83.70;;;;;;6017947;29;94298;-66
2023/05/28 00:57:00;;;;;;;3.13;2.80;;;23.00;83.60;;;;;;6027732;29;94145;-67
2023/05/28 01:00:04;;;;;;;3.88;2.83;;;23.00;83.70;;;;;;6009068;29;93700;-67
2023/05/28 01:03:07;;;;;;;4.00;2.90;;;23.00;83.70;;;;;;6007024;29;94096;-66
2023/05/28 01:06:12;;;;;;;3.70;3.17;;;23.00;83.70;;;;;;6014187;29;94206;-67
2023/05/28 01:09:14;;;;;;;3.03;2.65;;;23.00;83.70;;;;;;6005405;29;95858;-67
2023/05/28 01:12:17;;;;;;;3.42;2.78;;;23.00;83.70;;;;;;6007736;29;94115;-67
2023/05/28 01:15:21;;;;;;;3.22;2.60;;;23.00;83.70;;;;;;6011792;29;94107;-67
2023/05/28 01:18:24;;;;;;;4.25;3.05;;;23.00;83.70;;;;;;6009158;29;94193;-67
2023/05/28 01:21:28;;;;;;;3.53;2.85;;;23.00;83.70;;;;;;6010443;29;94597;-67
2023/05/28 01:24:32;;;;;;;3.60;2.90;;;23.10;83.70;;;;;;6013130;29;94117;-66
2023/05/28 01:27:34;;;;;;;3.15;2.75;;;23.00;83.70;;;;;;6010515;29;93975;-67
2023/05/28 01:30:36;;;;;;;3.50;2.90;;;23.00;83.70;;;;;;6010885;29;93531;-67
2023/05/28 01:33:41;;;;;;;3.85;2.97;;;23.00;83.70;;;;;;6003513;29;93592;-67
2023/05/28 01:36:46;;;;;;;3.60;2.80;;;23.00;83.70;;;;;;6007755;29;94213;-67
2023/05/28 01:39:52;;;;;;;3.78;2.92;;;23.00;83.70;;;;;;6024776;29;95160;-67
2023/05/28 01:42:56;;;;;;;3.58;2.90;;;23.00;83.80;;;;;;6013736;29;94137;-67
2023/05/28 01:45:58;;;;;;;3.08;2.70;;;23.00;83.80;;;;;;6005804;29;94228;-67
2023/05/28 01:49:01;;;;;;;2.65;2.35;;;23.00;83.80;;;;;;6013455;29;94194;-67
2023/05/28 01:52:04;;;;;;;3.42;2.80;;;23.00;83.70;;;;;;6010535;28;94156;-67
2023/05/28 01:55:11;;;;;;;4.22;2.85;;;23.00;83.70;;;;;;6006476;29;94087;-67
2023/05/28 01:58:13;;;;;;;3.47;2.90;;;23.00;83.70;;;;;;6014700;29;95546;-67
2023/05/28 02:01:19;;;;;;;3.30;2.90;;;23.00;83.70;;;;;;6003950;29;93580;-67
2023/05/28 02:04:22;;;;;;;3.50;2.88;;;23.00;83.80;;;;;;6013061;29;94130;-67
2023/05/28 02:07:23;;;;;;;3.92;2.90;;;23.00;83.80;;;;;;6015213;29;94631;-67
2023/05/28 02:10:27;;;;;;;3.45;2.92;;;23.00;83.80;;;;;;6010474;29;95000;-67
2023/05/28 02:13:30;;;;;;;3.80;2.85;;;23.00;83.80;;;;;;6007202;29;94379;-67
2023/05/28 02:16:32;;;;;;;3.00;2.70;;;23.00;83.80;;;;;;6012137;29;94676;-67
2023/05/28 02:19:34;;;;;;;3.35;2.70;;;23.00;83.80;;;;;;6014354;29;94147;-67
2023/05/28 02:22:36;;;;;;;3.03;2.47;;;23.00;83.80;;;;;;6014384;29;93096;-67
2023/05/28 02:25:39;;;;;;;3.42;2.60;;;23.00;83.80;;;;;;6003801;29;93176;-67
2023/05/28 02:28:43;;;;;;;3.75;2.90;;;23.00;83.80;;;;;;6012697;29;94579;-67
2023/05/28 02:31:45;;;;;;;4.15;2.78;;;23.00;83.80;;;;;;6018478;29;93470;-67
2023/05/28 02:34:47;;;;;;;3.92;3.00;;;23.00;83.80;;;;;;6014706;29;94156;-68
2023/05/28 02:37:49;;;;;;;5.05;3.67;;;23.00;83.80;;;;;;6005043;29;94168;-67
2023/05/28 02:40:52;;;;;;;3.33;3.00;;;23.00;83.80;;;;;;5992036;29;95087;-67
2023/05/28 02:43:54;;;;;;;3.40;2.90;;;23.00;83.80;;;;;;6006546;29;94158;-67
2023/05/28 02:46:57;;;;;;;4.03;3.10;;;23.00;83.80;;;;;;6034236;29;94237;-67
2023/05/28 02:49:58;;;;;;;3.65;3.10;;;23.00;83.80;;;;;;5992183;29;94081;-67
2023/05/28 02:53:00;;;;;;;4.15;3.40;;;23.00;83.80;;;;;;6009341;29;93069;-67
2023/05/28 02:56:04;;;;;;;4.25;3.30;;;23.00;83.80;;;;;;6012750;29;93014;-67
2023/05/28 02:59:06;;;;;;;4.05;3.38;;;23.00;83.90;;;;;;6011032;29;94186;-67
2023/05/28 03:02:08;;;;;;;4.47;3.90;;;23.00;83.80;;;;;;6004007;29;93333;-67
2023/05/28 03:05:10;;;;;;;4.85;4.15;;;23.00;83.80;;;;;;6014985;29;94192;-67
2023/05/28 03:08:12;;;;;;;4.30;3.90;;;23.00;83.80;;;;;;6002931;29;94152;-67
2023/05/28 03:11:15;;;;;;;4.38;3.95;;;23.00;83.80;;;;;;6012243;29;95125;-67
2023/05/28 03:14:17;;;;;;;4.85;4.35;;;23.00;83.80;;;;;;6011187;29;94516;-67
2023/05/28 03:17:20;;;;;;;4.90;4.40;;;23.00;83.80;;;;;;6012665;29;94233;-67
2023/05/28 03:20:23;;;;;;;5.88;4.93;;;23.00;83.80;;;;;;6031775;29;94107;-68
2023/05/28 03:23:25;;;;;;;5.78;4.75;;;23.00;83.80;;;;;;6016396;29;93152;-67
2023/05/28 03:26:28;;;;;;;5.90;5.30;;;23.00;83.80;;;;;;6009226;29;94131;-67
2023/05/28 03:29:30;;;;;;;5.95;5.13;;;23.00;83.90;;;;;;6009110;29;94164;-66
2023/05/28 03:32:32;;;;;;;7.10;5.57;;;23.00;84.00;;;;;;6007820;29;93940;-67
2023/05/28 03:35:34;;;;;;;6.03;5.43;;;23.00;83.90;;;;;;6012724;29;94312;-67
2023/05/28 03:38:36;;;;;;;6.90;6.05;;;23.00;83.90;;;;;;6024363;29;94683;-66
2023/05/28 03:41:39;;;;;;;6.70;5.68;;;23.00;83.90;;;;;;6012680;29;93939;-67
2023/05/28 03:44:42;;;;;;;6.70;6.00;;;23.00;83.90;;;;;;6011988;29;94463;-67
2023/05/28 03:47:44;;;;;;;7.13;6.05;;;23.00;83.90;;;;;;6012812;29;93141;-67
2023/05/28 03:50:46;;;;;;;7.20;6.50;;;23.00;83.90;;;;;;6013241;29;94136;-67
2023/05/28 03:53:48;;;;;;;7.32;6.30;;;23.00;83.90;;;;;;6010521;29;94286;-66
2023/05/28 03:56:51;;;;;;;9.07;7.47;;;23.00;83.90;;;;;;5998638;29;94202;-67
2023/05/28 03:59:55;;;;;;;7.53;6.72;;;23.00;83.90;;;;;;6015426;29;94153;-66
2023/05/28 04:02:57;;;;;;;7.63;6.82;;;23.00;83.80;;;;;;6007974;29;94301;-66
2023/05/28 04:06:00;;;;;;;7.78;6.93;;;22.90;83.80;;;;;;6021563;29;94119;-67
2023/05/28 04:09:02;;;;;;;7.55;6.80;;;23.00;83.90;;;;;;6019314;29;94188;-67
2023/05/28 04:12:07;;;;;;;8.48;7.63;;;23.00;83.90;;;;;;6010300;29;95438;-67
2023/05/28 04:15:10;;;;;;;8.63;7.72;;;23.00;83.90;;;;;;6003618;29;94177;-66
2023/05/28 04:18:12;;;;;;;8.35;7.55;;;23.00;83.90;;;;;;6007508;29;94618;-66
2023/05/28 04:21:14;;;;;;;8.85;7.60;;;23.00;83.90;;;;;;6011117;29;94316;-67
2023/05/28 04:24:16;;;;;;;8.75;7.82;;;23.00;83.90;;;;;;6011813;29;94336;-67
2023/05/28 04:27:19;;;;;;;8.48;7.63;;;23.00;83.90;;;;;;6023500;29;95053;-67
2023/05/28 04:30:22;;;;;;;8.73;7.82;;;23.00;84.00;;;;;;6010935;29;94144;-67
2023/05/28 04:33:28;;;;;;;9.13;8.15;;;23.00;83.90;;;;;;6008232;29;93562;-67
2023/05/28 04:36:32;;;;;;;8.60;7.72;;;23.00;84.00;;;;;;5991939;29;93527;-67
2023/05/28 04:39:35;;;;;;;8.85;7.78;;;23.00;84.00;;;;;;6007693;29;94207;-67
2023/05/28 04:42:40;;;;;;;8.63;7.80;;;23.00;84.00;;;;;;6023064;29;95159;-67
2023/05/28 04:45:42;;;;;;;9.00;8.10;;;23.00;83.90;;;;;;6013219;29;94048;-67
2023/05/28 04:48:43;;;;;;;9.60;8.23;;;23.00;83.90;;;;;;6010228;29;94132;-67
2023/05/28 04:51:45;;;;;;;9.35;8.10;;;23.00;83.80;;;;;;6023581;29;94145;-67
2023/05/28 04:54:47;;;;;;;8.63;7.72;;;23.00;83.80;;;;;;6002824;29;94137;-67
2023/05/28 04:57:51;;;;;;;9.20;8.23;;;23.00;83.80;;;;;;6010373;29;94115;-67
2023/05/28 05:00:53;;;;;;;9.15;7.93;;;23.10;83.80;;;;;;5991161;29;94156;-67
2023/05/28 05:03:55;;;;;;;8.75;7.85;;;23.10;83.80;;;;;;6003891;29;93506;-67
2023/05/28 05:06:57;;;;;;;8.60;7.70;;;23.10;83.80;;;;;;6024984;29;94177;-67
2023/05/28 05:09:59;;;;;;;8.45;7.55;;;23.10;83.80;;;;;;5988174;29;94389;-67
2023/05/28 05:13:02;;;;;;;8.38;7.55;;;23.10;83.80;;;;;;5990018;29;94984;-67
2023/05/28 05:16:04;;;;;;;8.48;7.35;;;23.10;83.70;;;;;;6010724;29;94483;-67
2023/05/28 05:19:06;;;;;;;8.68;7.60;;;23.10;83.70;;;;;;6012965;29;94255;-67
2023/05/28 05:22:08;;;;;;;9.00;7.45;;;23.10;83.70;;;;;;6016370;29;94149;-67
2023/05/28 05:25:10;;;;;;;8.48;7.55;;;23.10;83.70;;;;;;6012045;29;94555;-67
2023/05/28 05:28:14;;;;;;;7.68;6.82;;;23.10;83.70;;;;;;6001590;29;94147;-67
2023/05/28 05:31:16;;;;;;;8.57;7.68;;;23.20;83.80;;;;;;6015635;29;94236;-67
2023/05/28 05:34:18;;;;;;;8.32;7.35;;;23.20;83.80;;;;;;6013719;29;93316;-67
2023/05/28 05:37:20;;;;;;;8.20;7.40;;;23.20;83.70;;;;;;6005309;29;94381;-67
2023/05/28 05:40:22;;;;;;;8.52;7.45;;;23.20;83.70;;;;;;6011429;29;96230;-67
2023/05/28 05:43:25;;;;;;;8.00;7.20;;;23.20;83.60;;;;;;6006831;29;95081;-67
2023/05/28 05:46:27;;;;;;;8.02;7.20;;;23.20;83.50;;;;;;6006880;29;94118;-67
2023/05/28 05:49:29;;;;;;;7.63;6.88;;;23.20;83.50;;;;;;6002096;29;93005;-67
2023/05/28 05:52:31;;;;;;;7.50;6.70;;;23.20;83.50;;;;;;6003542;29;93378;-67
2023/05/28 05:55:33;;;;;;;8.00;7.20;;;23.30;83.50;;;;;;6014178;29;94412;-67
2023/05/28 05:58:37;;;;;;;9.35;7.38;;;23.20;83.50;;;;;;6013169;29;94149;-67
2023/05/28 06:01:39;;;;;;;7.18;6.47;;;23.20;83.40;;;;;;6003008;29;94129;-67
2023/05/28 06:04:41;;;;;;;7.22;6.22;;;23.20;83.40;;;;;;6003657;29;93509;-67
2023/05/28 06:07:43;;;;;;;7.68;6.90;;;23.20;83.30;;;;;;6002776;29;94480;-67
2023/05/28 06:10:47;;;;;;;8.27;7.28;;;23.20;83.30;;;;;;5997814;29;94176;-67
2023/05/28 06:13:51;;;;;;;8.00;7.20;;;23.20;83.30;;;;;;6006937;29;95358;-67
2023/05/28 06:16:53;;;;;;;7.75;6.95;;;23.20;83.30;;;;;;6008508;29;94173;-67
2023/05/28 06:19:55;;;;;;;7.75;6.93;;;23.20;83.30;;;;;;6012320;29;94128;-67
2023/05/28 06:22:58;;;;;;;7.15;6.45;;;23.20;83.40;;;;;;6025715;29;94053;-67
2023/05/28 06:26:01;;;;;;;7.90;7.10;;;23.20;83.50;;;;;;6002401;29;94546;-67
2023/05/28 06:29:06;;;;;;;8.27;7.38;;;23.30;83.50;;;;;;6006619;29;94165;-67
2023/05/28 06:32:08;;;;;;;7.10;6.40;;;23.30;83.50;;;;;;6013972;29;94094;-67
2023/05/28 06:35:10;;;;;;;6.75;6.05;;;23.20;83.40;;;;;;6005895;29;92452;-67
2023/05/28 06:38:12;;;;;;;7.45;6.38;;;23.30;83.50;;;;;;6001929;29;94231;-67
2023/05/28 06:41:14;;;;;;;7.22;6.53;;;23.30;83.40;;;;;;6012324;29;94156;-67
2023/05/28 06:44:18;;;;;;;7.40;6.68;;;23.30;83.50;;;;;;6017709;29;95123;-68
2023/05/28 06:47:19;;;;;;;7.40;6.68;;;23.30;83.40;;;;;;6024955;29;93214;-67
2023/05/28 06:50:22;;;;;;;7.18;6.47;;;23.30;83.40;;;;;;6021799;29;94107;-67
2023/05/28 06:53:24;;;;;;;7.28;6.57;;;23.30;83.50;;;;;;6013332;29;94152;-67
2023/05/28 06:56:26;;;;;;;7.22;6.53;;;23.30;83.50;;;;;;6027101;29;94122;-67
2023/05/28 06:59:30;;;;;;;7.07;6.38;;;23.30;83.50;;;;;;5997331;29;94662;-67
2023/05/28 07:02:32;;;;;;;7.20;6.50;;;23.30;83.40;;;;;;6011491;29;94302;-67
2023/05/28 07:05:35;;;;;;;8.25;6.68;;;23.30;83.50;;;;;;5999526;29;93407;-67
2023/05/28 07:08:40;;;;;;;6.82;6.10;;;23.30;84.30;;;;;;6002806;29;94059;-67
2023/05/28 07:11:42;;;;;;;7.18;6.47;;;23.30;83.40;;;;;;6001789;29;94564;-67
2023/05/28 07:14:46;;;;;;;7.07;6.38;;;23.30;83.30;;;;;;6024272;29;95098;-67
2023/05/28 07:17:48;;;;;;;6.18;5.57;;;23.30;83.40;;;;;;6009620;29;94544;-67
2023/05/28 07:20:50;;;;;;;6.85;6.15;;;23.30;83.30;;;;;;6029447;29;94776;-67
2023/05/28 07:23:52;;;;;;;6.38;5.78;;;23.30;83.30;;;;;;6013437;29;94209;-67
2023/05/28 07:26:54;;;;;;;7.40;6.55;;;23.30;83.30;;;;;;6005271;29;94051;-68
2023/05/28 07:29:57;;;;;;;6.78;6.18;;;23.30;83.30;;;;;;5999306;29;93983;-67
2023/05/28 07:32:59;;;;;;;6.40;5.80;;;23.30;83.40;;;;;;6011444;29;94256;-68
2023/05/28 07:36:01;;;;;;;6.28;5.68;;;23.30;83.50;;;;;;6000408;29;93428;-67
2023/05/28 07:39:03;;;;;;;6.55;5.95;;;23.30;83.50;;;;;;6023104;29;94077;-67
2023/05/28 07:42:06;;;;;;;6.60;5.93;;;23.30;83.50;;;;;;6012833;29;94037;-67
2023/05/28 07:45:11;;;;;;;6.28;5.68;;;23.30;83.50;;;;;;6014412;29;95060;-67
2023/05/28 07:48:13;;;;;;;6.40;5.80;;;23.30;83.50;;;;;;6011775;29;94087;-67
2023/05/28 07:51:14;;;;;;;6.65;5.97;;;23.30;83.50;;;;;;6008342;29;94171;-67
2023/05/28 07:54:16;;;;;;;6.43;5.68;;;23.30;83.50;;;;;;6005504;29;94159;-68
2023/05/28 07:57:19;;;;;;;6.38;5.50;;;23.30;83.50;;;;;;6000340;29;94178;-68
2023/05/28 08:00:22;;;;;;;6.50;5.90;;;23.30;83.50;;;;;;6013823;29;94463;-67
2023/05/28 08:03:27;;;;;;;6.07;5.47;;;23.30;83.50;;;;;;6003360;29;92989;-68
2023/05/28 08:06:29;;;;;;;6.78;6.03;;;23.30;83.50;;;;;;6015637;29;93424;-68
2023/05/28 08:09:31;;;;;;;7.60;6.05;;;23.30;83.50;;;;;;6001264;29;94279;-68
2023/05/28 08:12:33;;;;;;;6.22;5.63;;;23.30;83.60;;;;;;6001456;29;93046;-67
2023/05/28 08:15:37;;;;;;;6.15;5.45;;;23.30;83.60;;;;;;6007202;29;95130;-67
2023/05/28 08:18:39;;;;;;;6.05;5.45;;;23.30;83.60;;;;;;6019699;29;94419;-68
2023/05/28 08:21:41;;;;;;;6.68;6.00;;;23.30;83.60;;;;;;6024454;29;93914;-67
2023/05/28 08:24:43;;;;;;;5.90;5.30;;;23.30;83.60;;;;;;6010489;29;93379;-67
2023/05/28 08:27:45;;;;;;;6.88;5.72;;;23.30;83.60;;;;;;6011746;29;94120;-67
2023/05/28 08:30:48;;;;;;;6.07;5.22;;;23.30;83.50;;;;;;6011962;29;94115;-67
2023/05/28 08:33:50;;;;;;;5.70;5.13;;;23.30;83.50;;;;;;6011093;29;94109;-67
2023/05/28 08:36:52;;;;;;;6.07;5.47;;;23.30;83.50;;;;;;6000641;29;92307;-67
2023/05/28 08:39:54;;;;;;;5.78;5.18;;;23.30;83.60;;;;;;6006748;29;94678;-67
2023/05/28 08:42:56;;;;;;;5.88;5.28;;;23.30;83.60;;;;;;6019117;29;95898;-67
2023/05/28 08:46:00;;;;;;;6.03;5.43;;;23.30;83.70;;;;;;6021370;29;97059;-67
2023/05/28 08:49:03;;;;;;;6.63;5.10;;;23.30;83.60;;;;;;6010170;29;94334;-67
2023/05/28 08:52:08;;;;;;;5.68;5.07;;;23.30;83.70;;;;;;6001206;29;94123;-67
2023/05/28 08:55:10;;;;;;;6.00;5.40;;;23.30;83.70;;;;;;6003369;29;94117;-67
2023/05/28 08:58:14;;;;;;;5.60;5.00;;;23.30;83.70;;;;;;6022097;29;94150;-67
2023/05/28 09:01:17;;;;;;;6.00;5.40;;;23.30;83.60;;;;;;5992220;29;94096;-67
2023/05/28 09:04:19;;;;;;;5.88;5.28;;;23.30;83.60;;;;;;6005905;29;94358;-68
2023/05/28 09:07:21;;;;;;;5.57;5.00;;;23.30;83.60;;;;;;5996326;29;93473;-67
2023/05/28 09:10:23;;;;;;;6.85;5.68;;;23.30;83.60;;;;;;5999988;29;94256;-67
2023/05/28 09:13:27;;;;;;;5.97;5.38;;;23.30;83.60;;;;;;6002711;29;94454;-67
2023/05/28 09:16:30;;;;;;;5.80;5.20;;;23.30;83.60;;;;;;6004102;29;94054;-67
2023/05/28 09:19:32;;;;;;;5.90;5.30;;;23.30;83.60;;;;;;6015450;29;93629;-68
2023/05/28 09:22:34;;;;;;;5.07;4.57;;;23.30;83.70;;;;;;5997116;29;94207;-67
2023/05/28 09:25:38;;;;;;;5.28;4.78;;;23.30;83.60;;;;;;6011158;29;95604;-68
2023/05/28 09:28:42;;;;;;;5.53;5.03;;;23.30;83.60;;;;;;5999031;29;94305;-68
2023/05/28 09:31:55;;;;;;;5.40;4.90;;;23.30;83.50;;;;;;6009052;29;94185;-67
2023/05/28 09:34:58;;;;;;;4.97;4.50;;;23.30;83.50;;;;;;6016871;29;94082;-68
2023/05/28 09:38:04;;;;;;;5.20;4.70;;;23.30;83.60;;;;;;6024212;29;93691;-68
2023/05/28 09:41:09;;;;;;;5.43;4.93;;;23.30;83.50;;;;;;6015899;29;94305;-67
2023/05/28 09:44:12;;;;;;;5.00;4.53;;;23.30;83.50;;;;;;6012815;29;94163;-67
2023/05/28 09:47:17;;;;;;;6.65;5.55;;;23.30;83.50;;;;;;5992422;29;95199;-67
2023/05/28 09:50:19;;;;;;;5.38;4.80;;;23.30;83.50;;;;;;5991872;29;94152;-68
2023/05/28 09:53:23;;;;;;;5.63;4.70;;;23.30;83.50;;;;;;6010811;29;94112;-67
2023/05/28 09:56:29;;;;;;;5.22;4.50;;;23.30;83.50;;;;;;6000736;29;94144;-67
2023/05/28 09:59:33;;;;;;;5.10;4.60;;;23.30;83.50;;;;;;5999332;29;94170;-67
2023/05/28 10:02:43;;;;;;;5.28;4.70;;;23.30;83.50;;;;;;5996151;29;94659;-67
2023/05/28 10:05:49;;;;;;;5.10;4.60;;;23.30;83.30;;;;;;6015036;29;94100;-67
2023/05/28 10:08:52;;;;;;;5.43;4.90;;;23.30;83.30;;;;;;6011876;29;93448;-68
2023/05/28 10:12:01;;;;;;;5.40;4.90;;;23.30;84.20;;;;;;5994879;29;94132;-67
2023/05/28 10:15:03;;;;;;;6.13;4.63;;;23.30;83.30;;;;;;6015500;29;94346;-67
2023/05/28 10:18:07;;;;;;;5.32;4.47;;;23.30;83.30;;;;;;6004848;29;95271;-67
2023/05/28 10:21:12;;;;;;;5.45;4.60;;;23.30;83.40;;;;;;6007731;29;94120;-68
2023/05/28 10:24:15;;;;;;;4.50;4.10;;;23.30;83.40;;;;;;6007237;29;94250;-68
2023/05/28 10:27:18;;;;;;;5.03;4.53;;;23.30;83.30;;;;;;5999301;29;94072;-68
2023/05/28 10:30:34;;;;;;;5.40;4.80;;;23.30;83.40;;;;;;6005028;29;94711;-67
2023/05/28 10:33:41;;;;;;;5.03;4.32;;;23.30;83.40;;;;;;6014114;29;94185;-68
2023/05/28 10:36:51;;;;;;;5.63;4.80;;;23.30;83.30;;;;;;6011786;29;94434;-68
2023/05/28 10:39:53;;;;;;;5.25;4.65;;;23.30;83.40;;;;;;6009580;29;93499;-67
2023/05/28 10:42:55;;;;;;;4.97;4.47;;;23.30;83.30;;;;;;6008458;29;94476;-68
2023/05/28 10:45:57;;;;;;;4.88;4.38;;;23.30;83.30;;;;;;6012074;29;94462;-68
2023/05/28 10:49:12;;;;;;;4.63;4.22;;;23.30;83.30;;;;;;6009709;29;95036;-67
2023/05/28 10:52:22;;;;;;;4.78;4.28;;;23.30;83.30;;;;;;6016609;29;94215;-67
2023/05/28 10:55:24;;;;;;;4.88;4.38;;;23.30;83.30;;;;;;6013816;29;93869;-68
2023/05/28 10:58:27;;;;;;;4.47;4.07;;;23.30;83.30;;;;;;6020032;29;94422;-68
2023/05/28 11:01:31;;;;;;;4.55;4.15;;;23.30;83.30;;;;;;6018637;29;94069;-68
2023/05/28 11:04:36;;;;;;;4.68;4.18;;;23.30;83.30;;;;;;6014532;29;94069;-68
2023/05/28 11:07:38;;;;;;;4.45;4.05;;;23.30;83.30;;;;;;6011551;29;94271;-68
2023/05/28 11:10:41;;;;;;;4.68;4.22;;;23.30;83.20;;;;;;6010758;29;93444;-68
2023/05/28 11:13:44;;;;;;;4.65;4.10;;;23.30;83.20;;;;;;6007997;29;94310;-68
2023/05/28 11:16:46;;;;;;;4.65;4.20;;;23.30;83.30;;;;;;6007862;29;94694;-67
2023/05/28 11:19:50;;;;;;;4.68;4.05;;;23.30;83.30;;;;;;6011770;29;95082;-68
2023/05/28 11:22:53;;;;;;;5.22;4.20;;;23.30;83.40;;;;;;6011956;29;94092;-68
2023/05/28 11:25:55;;;;;;;4.88;4.32;;;23.30;83.50;;;;;;6013015;29;94150;-67
2023/05/28 11:28:57;;;;;;;4.25;3.85;;;23.30;83.50;;;;;;6012890;29;94213;-68
2023/05/28 11:32:03;;;;;;;4.47;4.07;;;23.30;83.50;;;;;;6011391;29;93796;-68
2023/05/28 11:35:07;;;;;;;4.75;4.10;;;23.30;83.50;;;;;;6002087;29;94325;-68
2023/05/28 11:38:09;;;;;;;4.15;3.75;;;23.30;83.50;;;;;;6019819;29;94162;-68
2023/05/28 11:41:11;;;;;;;4.35;3.95;;;23.30;83.50;;;;;;6010774;29;93380;-68
2023/05/28 11:44:21;;;;;;;4.20;3.80;;;23.30;83.40;;;;;;6006520;29;94516;-68
2023/05/28 11:47:24;;;;;;;4.30;3.90;;;23.30;83.30;;;;;;6022493;29;94275;-68
2023/05/28 11:50:27;;;;;;;4.15;3.75;;;23.30;83.40;;;;;;6011672;29;95631;-68
2023/05/28 11:53:43;;;;;;;4.13;3.65;;;23.30;83.50;;;;;;6003517;29;94147;-68
2023/05/28 11:56:48;;;;;;;4.80;4.13;;;23.30;84.40;;;;;;6014828;29;94054;-68
2023/05/28 12:00:10;;;;;;;4.90;4.00;;;23.30;83.40;;;;;;6011247;29;94295;-68
2023/05/28 12:03:12;;;;;;;5.07;4.00;;;23.30;83.50;;;;;;6009011;29;94336;-68
2023/05/28 12:06:16;;;;;;;4.38;3.97;;;23.40;83.50;;;;;;6015648;29;92990;-68
2023/05/28 12:09:19;;;;;;;4.60;4.20;;;23.30;83.60;;;;;;6006031;29;94102;-68
2023/05/28 12:12:20;;;;;;;4.60;4.15;;;23.30;83.50;;;;;;6027774;29;93440;-68
2023/05/28 12:15:24;;;;;;;3.97;3.58;;;23.30;83.60;;;;;;6018076;29;94111;-68
2023/05/28 12:18:29;;;;;;;4.30;3.90;;;23.30;83.50;;;;;;6007126;29;94186;-68
2023/05/28 12:21:35;;;;;;;3.95;3.55;;;23.30;83.50;;;;;;6022043;29;95350;-68
2023/05/28 12:24:37;;;;;;;4.38;3.97;;;23.30;83.50;;;;;;6018059;29;94140;-68
2023/05/28 12:27:39;;;;;;;4.75;4.10;;;23.30;83.50;;;;;;5999080;29;93052;-68
2023/05/28 12:30:44;;;;;;;4.25;3.85;;;23.30;83.60;;;;;;6012323;29;94146;-68
2023/05/28 12:33:46;;;;;;;4.05;3.65;;;23.30;83.60;;;;;;6011359;29;94178;-68
2023/05/28 12:36:50;;;;;;;3.97;3.58;;;23.30;83.50;;;;;;6012081;29;94144;-68
2023/05/28 12:39:52;;;;;;;3.92;3.63;;;23.30;83.60;;;;;;6012019;29;93075;-68
2023/05/28 12:42:54;;;;;;;3.90;3.50;;;23.30;83.70;;;;;;6031623;29;92414;-68
2023/05/28 12:45:56;;;;;;;4.55;3.47;;;23.30;83.60;;;;;;6022221;29;92910;-68
2023/05/28 12:48:58;;;;;;;3.92;3.50;;;23.30;83.60;;;;;;6022033;29;94124;-68
2023/05/28 12:52:02;;;;;;;4.63;3.70;;;23.30;83.60;;;;;;6010598;29;95048;-68
2023/05/28 12:55:04;;;;;;;5.00;4.22;;;23.30;83.50;;;;;;6001349;29;94226;-68
2023/05/28 12:58:06;;;;;;;3.60;3.30;;;23.30;83.50;;;;;;6001624;29;94049;-68
2023/05/28 13:01:08;;;;;;;3.67;3.38;;;23.30;83.50;;;;;;6001018;29;93932;-68
2023/05/28 13:04:10;;;;;;;3.72;3.38;;;23.30;83.50;;;;;;6003468;29;94103;-68
2023/05/28 13:07:14;;;;;;;4.20;3.80;;;23.30;83.50;;;;;;6010074;29;94288;-68
2023/05/28 13:10:16;;;;;;;4.22;3.65;;;23.30;83.60;;;;;;6017550;29;94552;-68
2023/05/28 13:13:18;;;;;;;4.18;3.63;;;23.30;83.70;;;;;;5999152;29;92192;-68
2023/05/28 13:16:20;;;;;;;3.60;3.30;;;23.30;83.50;;;;;;6004540;29;93177;-68
2023/05/28 13:19:22;;;;;;;4.00;3.60;;;23.30;83.50;;;;;;6000753;29;94110;-68
2023/05/28 13:22:25;;;;;;;3.60;3.30;;;23.30;83.60;;;;;;6024095;29;95119;-68
2023/05/28 13:25:27;;;;;;;3.90;3.30;;;23.30;83.60;;;;;;6011777;29;94101;-68
2023/05/28 13:28:29;;;;;;;3.50;3.20;;;23.30;83.70;;;;;;6010513;29;94103;-68
2023/05/28 13:31:31;;;;;;;3.85;3.45;;;23.30;83.50;;;;;;6010764;29;94162;-68
2023/05/28 13:34:33;;;;;;;3.75;3.45;;;23.30;83.50;;;;;;6024765;29;94155;-68
2023/05/28 13:37:36;;;;;;;3.63;3.30;;;23.30;83.50;;;;;;6011909;29;94096;-68
2023/05/28 13:40:38;;;;;;;4.18;3.75;;;23.30;83.50;;;;;;6004345;29;94167;-68
2023/05/28 13:43:41;;;;;;;3.97;3.55;;;23.30;83.50;;;;;;6017592;29;93565;-68
2023/05/28 13:46:43;;;;;;;3.20;2.90;;;23.30;83.50;;;;;;6007384;29;94116;-68
2023/05/28 13:49:44;;;;;;;3.75;3.40;;;23.30;83.50;;;;;;6012341;29;94164;-68
2023/05/28 13:52:48;;;;;;;3.47;3.10;;;23.30;83.50;;;;;;6005476;29;95075;-68
2023/05/28 13:55:50;;;;;;;4.55;3.80;;;23.30;83.50;;;;;;6005945;29;94066;-68
2023/05/28 13:58:52;;;;;;;4.25;3.55;;;23.30;83.50;;;;;;6010259;29;94271;-68
2023/05/28 14:01:54;;;;;;;4.00;3.38;;;23.30;83.60;;;;;;6011184;29;94133;-68
2023/05/28 14:04:56;;;;;;;3.83;3.47;;;23.30;83.50;;;;;;6018551;29;94111;-69
2023/05/28 14:07:59;;;;;;;3.92;3.50;;;23.30;83.50;;;;;;6012641;29;96221;-68
2023/05/28 14:11:01;;;;;;;3.47;3.17;;;23.40;83.70;;;;;;6012978;29;94197;-69
2023/05/28 14:14:03;;;;;;;3.92;3.35;;;23.40;83.70;;;;;;6008756;29;93477;-68
2023/05/28 14:17:06;;;;;;;6.55;3.83;;;23.30;83.70;;;;;;6002731;29;94123;-68
2023/05/28 14:20:08;;;;;;;12.27;4.35;;;23.30;84.20;;;;;;5994451;29;94178;-69
2023/05/28 14:23:11;;;;;;;7.85;3.70;;;23.30;85.70;;;;;;6009614;29;95090;-68
2023/05/28 14:26:13;;;;;;;5.70;3.97;;;23.40;86.20;;;;;;6008373;29;94552;-69
2023/05/28 14:29:15;;;;;;;6.70;3.63;;;23.40;86.10;;;;;;5999975;29;95671;-68
2023/05/28 14:32:17;;;;;;;7.60;4.05;;;23.30;85.90;;;;;;6001605;29;94107;-68
2023/05/28 14:35:20;;;;;;;6.88;3.95;;;23.40;85.90;;;;;;6003364;29;94191;-68
2023/05/28 14:38:24;;;;;;;5.47;3.45;;;23.40;85.70;;;;;;6014561;29;94108;-69
2023/05/28 14:41:26;;;;;;;6.93;3.75;;;23.40;86.70;;;;;;6006853;29;94127;-68
2023/05/28 14:44:28;;;;;;;6.07;3.72;;;23.40;86.70;;;;;;6016710;29;93308;-69
2023/05/28 14:47:30;;;;;;;5.53;3.70;;;23.40;88.30;;;;;;5993094;29;95265;-70
2023/05/28 14:50:32;;;;;;;9.50;4.03;;;23.40;88.80;;;;;;6001844;29;94247;-69
2023/05/28 14:53:36;;;;;;;6.43;3.58;;;23.40;88.20;;;;;;6012011;29;94949;-68
2023/05/28 14:56:37;;;;;;;8.25;4.38;;;23.40;87.70;;;;;;6010492;29;94400;-70
2023/05/28 14:59:39;;;;;;;6.68;4.05;;;23.40;87.10;;;;;;6009597;29;94426;-70
2023/05/28 15:02:43;;;;;;;8.90;3.80;;;23.40;86.80;;;;;;6008870;29;94556;-70
2023/05/28 15:05:45;;;;;;;8.90;3.75;;;23.40;86.70;;;;;;6015173;29;94125;-70
2023/05/28 15:08:48;;;;;;;7.15;3.75;;;23.40;86.60;;;;;;6009190;29;94243;-70
2023/05/28 15:11:50;;;;;;;4.75;3.33;;;23.40;86.50;;;;;;6005538;29;93940;-70
2023/05/28 15:14:52;;;;;;;5.57;3.65;;;23.40;86.40;;;;;;6001746;29;94706;-70
2023/05/28 15:17:55;;;;;;;7.88;4.40;;;23.40;86.10;;;;;;5997410;29;94118;-70
2023/05/28 15:20:57;;;;;;;5.35;3.67;;;23.40;85.90;;;;;;6004263;29;94135;-70
2023/05/28 15:24:00;;;;;;;7.78;4.25;;;23.40;85.90;;;;;;6008249;29;95089;-69
2023/05/28 15:27:03;;;;;;;7.78;4.20;;;23.40;85.70;;;;;;6010177;29;94170;-69
2023/05/28 15:30:06;;;;;;;6.35;3.88;;;23.40;85.70;;;;;;6009675;29;94319;-69
2023/05/28 15:33:10;;;;;;;4.72;3.50;;;23.40;86.00;;;;;;6000383;29;94050;-69
2023/05/28 15:36:13;;;;;;;5.88;3.58;;;23.40;86.20;;;;;;6011490;29;94147;-69
2023/05/28 15:39:17;;;;;;;6.15;3.88;;;23.40;86.20;;;;;;6009317;29;94352;-69
2023/05/28 15:42:19;;;;;;;7.40;3.70;;;23.40;86.10;;;;;;6007563;29;92999;-68
2023/05/28 15:45:22;;;;;;;6.50;3.65;;;23.40;86.10;;;;;;6025756;29;93357;-67
2023/05/28 15:48:24;;;;;;;4.32;3.65;;;23.40;86.10;;;;;;6013375;29;94199;-67
2023/05/28 15:51:26;;;;;;;5.50;3.75;;;23.40;86.10;;;;;;6005502;29;94137;-67
2023/05/28 15:54:30;;;;;;;6.15;3.72;;;23.40;86.10;;;;;;5991100;29;95146;-67